Time,TemperatureF,DewpointF,PressureIn,WindDirection,WindDirectionDegrees,WindSpeedMPH,WindSpeedGustMPH,Humidity,HourlyPrecipIn,Conditions,Clouds,dailyrainin,SoftwareType,DateUTC
2013-05-17 00:07:00,60.8,57.5,29.97,ESE,112,0.0,-999.0,89,-99.99,,,0.00,Acu-Link.com,2013-05-17 04:07:00,
2013-05-17 00:22:00,60.8,57.5,29.97,SSW,202,0.0,-999.0,89,-99.99,,,0.00,Acu-Link.com,2013-05-17 04:22:00,
2013-05-17 00:37:00,60.1,57.5,29.97,SSW,202,0.0,-999.0,91,-99.99,,,0.00,Acu-Link.com,2013-05-17 04:37:00,
2013-05-17 00:53:00,59.5,57.2,29.97,SSE,157,0.0,-999.0,92,-99.99,,,0.00,Acu-Link.com,2013-05-17 04:53:00,
2013-05-17 01:08:00,59.2,57.2,29.97,South,180,0.0,-999.0,93,-99.99,,,0.00,Acu-Link.com,2013-05-17 05:08:00,
2013-05-17 01:23:00,58.8,57.1,29.96,South,180,0.0,-999.0,94,-99.99,,,0.00,Acu-Link.com,2013-05-17 05:23:00,
2013-05-17 01:38:00,58.3,56.9,29.97,NE,45,0.0,-999.0,95,-99.99,,,0.00,Acu-Link.com,2013-05-17 05:38:00,
2013-05-17 01:53:00,58.1,57.0,29.96,ENE,67,0.0,-999.0,96,-99.99,,,0.00,Acu-Link.com,2013-05-17 05:53:00,
2013-05-17 02:09:00,57.7,56.6,29.96,SE,135,0.0,-999.0,96,-99.99,,,0.00,Acu-Link.com,2013-05-17 06:09:00,
2013-05-17 02:24:00,57.6,56.8,29.96,East,90,0.0,-999.0,97,-99.99,,,0.00,Acu-Link.com,2013-05-17 06:24:00,
2013-05-17 02:39:00,57.0,56.4,29.97,ENE,67,0.0,-999.0,98,-99.99,,,0.00,Acu-Link.com,2013-05-17 06:39:00,
2013-05-17 02:55:00,56.8,56.2,29.97,SW,225,0.0,-999.0,98,-99.99,,,0.00,Acu-Link.com,2013-05-17 06:55:00,
2013-05-17 03:10:00,56.8,56.2,29.97,SSW,202,0.0,-999.0,98,-99.99,,,0.00,Acu-Link.com,2013-05-17 07:10:00,
2013-05-17 03:25:00,56.7,56.1,29.97,WNW,292,0.0,-999.0,98,-99.99,,,0.00,Acu-Link.com,2013-05-17 07:25:00,
2013-05-17 03:41:00,56.8,56.2,29.98,SW,225,0.0,-999.0,98,-99.99,,,0.00,Acu-Link.com,2013-05-17 07:41:00,
2013-05-17 03:56:00,56.8,56.2,29.98,ESE,112,0.0,-999.0,98,-99.99,,,0.00,Acu-Link.com,2013-05-17 07:56:00,
2013-05-17 04:11:00,56.8,56.2,29.97,WNW,292,0.0,-999.0,98,-99.99,,,0.00,Acu-Link.com,2013-05-17 08:11:00,
2013-05-17 04:26:00,56.8,56.2,29.98,SW,225,0.0,-999.0,98,-99.99,,,0.00,Acu-Link.com,2013-05-17 08:26:00,
2013-05-17 04:42:00,56.8,56.2,29.98,East,90,0.0,-999.0,98,-99.99,,,0.00,Acu-Link.com,2013-05-17 08:42:00,
2013-05-17 04:57:00,56.7,56.1,29.98,ENE,67,0.0,-999.0,98,-99.99,,,0.00,Acu-Link.com,2013-05-17 08:57:00,
2013-05-17 05:12:00,56.7,56.4,29.98,SSW,202,0.0,-999.0,99,-99.99,,,0.00,Acu-Link.com,2013-05-17 09:12:00,
2013-05-17 05:27:00,56.5,56.2,29.99,ESE,112,0.0,-999.0,99,-99.99,,,0.00,Acu-Link.com,2013-05-17 09:27:00,
2013-05-17 05:42:00,56.5,56.2,29.99,SSW,202,0.0,-999.0,99,-99.99,,,0.00,Acu-Link.com,2013-05-17 09:42:00,
2013-05-17 05:58:00,56.7,56.4,29.99,ESE,112,0.0,-999.0,99,-99.99,,,0.00,Acu-Link.com,2013-05-17 09:58:00,
2013-05-17 06:13:00,56.5,55.9,30.00,WSW,247,0.0,-999.0,98,-99.99,,,0.00,Acu-Link.com,2013-05-17 10:13:00,
2013-05-17 06:28:00,56.7,56.4,30.00,SSE,157,0.0,-999.0,99,-99.99,,,0.00,Acu-Link.com,2013-05-17 10:28:00,
2013-05-17 06:44:00,57.0,56.7,30.01,SSW,202,0.0,-999.0,99,-99.99,,,0.00,Acu-Link.com,2013-05-17 10:44:00,
2013-05-17 06:59:00,57.2,56.6,30.01,ENE,67,0.0,-999.0,98,-99.99,,,0.00,Acu-Link.com,2013-05-17 10:59:00,
2013-05-17 07:14:00,57.4,56.8,30.01,South,180,0.0,-999.0,98,-99.99,,,0.00,Acu-Link.com,2013-05-17 11:14:00,
2013-05-17 07:29:00,57.4,56.3,30.02,ESE,112,0.0,-999.0,96,-99.99,,,0.00,Acu-Link.com,2013-05-17 11:29:00,
2013-05-17 07:44:00,57.4,56.6,30.02,SE,135,0.0,-999.0,97,-99.99,,,0.00,Acu-Link.com,2013-05-17 11:44:00,
2013-05-17 08:00:00,58.3,57.2,30.02,SE,135,0.0,-999.0,96,-99.99,,,0.00,Acu-Link.com,2013-05-17 12:00:00,
2013-05-17 08:15:00,59.0,57.0,30.02,SW,225,0.0,-999.0,93,-99.99,,,0.00,Acu-Link.com,2013-05-17 12:15:00,
2013-05-17 08:30:00,59.7,57.4,30.02,South,180,0.0,-999.0,92,-99.99,,,0.00,Acu-Link.com,2013-05-17 12:30:00,
2013-05-17 08:46:00,61.0,58.4,30.03,ESE,112,0.0,-999.0,91,-99.99,,,0.00,Acu-Link.com,2013-05-17 12:46:00,
2013-05-17 09:01:00,62.6,59.3,30.03,SSE,157,0.0,-999.0,89,-99.99,,,0.00,Acu-Link.com,2013-05-17 13:01:00,
2013-05-17 09:16:00,64.4,59.5,30.03,SW,225,0.0,-999.0,84,-99.99,,,0.00,Acu-Link.com,2013-05-17 13:16:00,
2013-05-17 09:32:00,66.2,59.5,30.03,ESE,112,0.0,-999.0,79,-99.99,,,0.00,Acu-Link.com,2013-05-17 13:32:00,
2013-05-17 09:47:00,69.3,60.3,30.04,South,180,0.0,-999.0,73,-99.99,,,0.00,Acu-Link.com,2013-05-17 13:47:00,
2013-05-17 10:02:00,70.0,61.3,30.04,South,180,0.0,-999.0,74,-99.99,,,0.00,Acu-Link.com,2013-05-17 14:02:00,
2013-05-17 10:17:00,71.1,61.6,30.04,SW,225,0.0,-999.0,72,-99.99,,,0.00,Acu-Link.com,2013-05-17 14:17:00,
2013-05-17 10:33:00,70.9,60.6,30.04,South,180,0.0,-999.0,70,-99.99,,,0.00,Acu-Link.com,2013-05-17 14:33:00,
2013-05-17 10:48:00,73.2,60.7,30.04,SW,225,0.0,-999.0,65,-99.99,,,0.00,Acu-Link.com,2013-05-17 14:48:00,
2013-05-17 11:03:00,71.2,60.9,30.04,East,90,0.0,-999.0,70,-99.99,,,0.00,Acu-Link.com,2013-05-17 15:03:00,
2013-05-17 11:19:00,70.7,60.0,30.04,SE,135,0.0,-999.0,69,-99.99,,,0.00,Acu-Link.com,2013-05-17 15:19:00,
2013-05-17 11:34:00,71.1,60.8,30.05,SSE,157,0.0,-999.0,70,-99.99,,,0.00,Acu-Link.com,2013-05-17 15:34:00,
2013-05-17 11:49:00,72.5,60.5,30.04,East,90,0.0,-999.0,66,-99.99,,,0.00,Acu-Link.com,2013-05-17 15:49:00,
2013-05-17 12:05:00,73.6,62.0,30.04,South,180,0.0,-999.0,67,-99.99,,,0.00,Acu-Link.com,2013-05-17 16:05:00,
2013-05-17 12:20:00,75.2,61.3,30.04,South,180,1.1,-999.0,62,-99.99,,,0.00,Acu-Link.com,2013-05-17 16:20:00,
2013-05-17 12:35:00,74.5,61.1,30.03,South,180,0.0,-999.0,63,-99.99,,,0.00,Acu-Link.com,2013-05-17 16:35:00,
2013-05-17 12:50:00,74.1,60.7,30.03,NNE,22,1.7,-999.0,63,-99.99,,,0.00,Acu-Link.com,2013-05-17 16:50:00,
2013-05-17 13:06:00,75.2,60.8,30.02,ESE,112,0.0,-999.0,61,-99.99,,,0.00,Acu-Link.com,2013-05-17 17:06:00,
2013-05-17 13:21:00,74.8,59.5,30.02,WNW,292,2.2,-999.0,59,-99.99,,,0.00,Acu-Link.com,2013-05-17 17:21:00,
2013-05-17 13:36:00,76.1,60.2,30.02,West,270,1.7,-999.0,58,-99.99,,,0.00,Acu-Link.com,2013-05-17 17:36:00,
2013-05-17 13:52:00,75.7,58.9,30.01,WNW,292,2.7,-999.0,56,-99.99,,,0.00,Acu-Link.com,2013-05-17 17:52:00,
2013-05-17 14:07:00,77.0,58.5,30.01,West,270,0.0,-999.0,53,-99.99,,,0.00,Acu-Link.com,2013-05-17 18:07:00,
2013-05-17 14:22:00,75.7,61.3,30.01,SW,225,0.0,-999.0,61,-99.99,,,0.00,Acu-Link.com,2013-05-17 18:22:00,
2013-05-17 14:37:00,80.6,59.6,30.01,SSE,157,1.1,-999.0,49,-99.99,,,0.00,Acu-Link.com,2013-05-17 18:37:00,
2013-05-17 14:53:00,80.6,58.5,30.00,South,180,2.2,-999.0,47,-99.99,,,0.00,Acu-Link.com,2013-05-17 18:53:00,
2013-05-17 15:08:00,79.2,60.6,30.00,WSW,247,1.7,-999.0,53,-99.99,,,0.00,Acu-Link.com,2013-05-17 19:08:00,
2013-05-17 15:23:00,80.8,58.7,30.00,SW,225,2.7,-999.0,47,-99.99,,,0.00,Acu-Link.com,2013-05-17 19:23:00,
2013-05-17 15:38:00,80.2,59.9,30.00,SSE,157,0.0,-999.0,50,-99.99,,,0.00,Acu-Link.com,2013-05-17 19:38:00,
2013-05-17 15:53:00,79.0,59.9,30.00,SE,135,0.0,-999.0,52,-99.99,,,0.00,Acu-Link.com,2013-05-17 19:53:00,
2013-05-17 16:09:00,78.3,59.7,29.98,ESE,112,2.7,-999.0,53,-99.99,,,0.00,Acu-Link.com,2013-05-17 20:09:00,
2013-05-17 16:24:00,79.2,61.1,29.98,South,180,0.0,-999.0,54,-99.99,,,0.00,Acu-Link.com,2013-05-17 20:24:00,
2013-05-17 16:39:00,78.6,61.1,29.98,South,180,2.2,-999.0,55,-99.99,,,0.00,Acu-Link.com,2013-05-17 20:39:00,
2013-05-17 16:55:00,78.4,61.4,29.98,SW,225,1.7,-999.0,56,-99.99,,,0.00,Acu-Link.com,2013-05-17 20:55:00,
2013-05-17 17:10:00,78.4,61.4,29.98,SW,225,2.7,-999.0,56,-99.99,,,0.00,Acu-Link.com,2013-05-17 21:10:00,
2013-05-17 17:25:00,76.8,60.9,29.98,SSE,157,0.0,-999.0,58,-99.99,,,0.00,Acu-Link.com,2013-05-17 21:25:00,
2013-05-17 17:40:00,76.5,60.6,29.98,SSE,157,0.0,-999.0,58,-99.99,,,0.00,Acu-Link.com,2013-05-17 21:40:00,
2013-05-17 17:56:00,75.9,59.1,29.98,South,180,0.0,-999.0,56,-99.99,,,0.00,Acu-Link.com,2013-05-17 21:56:00,
2013-05-17 18:11:00,75.2,56.3,29.98,West,270,0.0,-999.0,52,-99.99,,,0.00,Acu-Link.com,2013-05-17 22:11:00,
2013-05-17 18:26:00,74.7,55.9,29.98,SE,135,0.0,-999.0,52,-99.99,,,0.00,Acu-Link.com,2013-05-17 22:26:00,
2013-05-17 18:41:00,74.3,57.6,29.98,West,270,0.0,-999.0,56,-99.99,,,0.00,Acu-Link.com,2013-05-17 22:41:00,
2013-05-17 18:57:00,73.6,57.4,29.97,West,270,0.0,-999.0,57,-99.99,,,0.00,Acu-Link.com,2013-05-17 22:57:00,
2013-05-17 19:12:00,73.2,56.5,29.98,SSE,157,0.0,-999.0,56,-99.99,,,0.00,Acu-Link.com,2013-05-17 23:12:00,
2013-05-17 19:27:00,71.8,55.7,29.98,SW,225,0.0,-999.0,57,-99.99,,,0.00,Acu-Link.com,2013-05-17 23:27:00,
2013-05-17 19:42:00,70.9,54.9,29.97,SW,225,0.0,-999.0,57,-99.99,,,0.00,Acu-Link.com,2013-05-17 23:42:00,
2013-05-17 19:58:00,70.0,54.1,29.98,SSW,202,0.0,-999.0,57,-99.99,,,0.00,Acu-Link.com,2013-05-17 23:58:00,
2013-05-17 20:13:00,69.4,54.4,29.98,West,270,0.0,-999.0,59,-99.99,,,0.00,Acu-Link.com,2013-05-18 00:13:00,
2013-05-17 20:28:00,68.7,53.3,29.98,NNW,337,0.0,-999.0,58,-99.99,,,0.00,Acu-Link.com,2013-05-18 00:28:00,
2013-05-17 20:43:00,68.7,53.8,29.99,West,270,0.0,-999.0,59,-99.99,,,0.00,Acu-Link.com,2013-05-18 00:43:00,
2013-05-17 20:59:00,68.0,54.9,29.99,South,180,0.0,-999.0,63,-99.99,,,0.00,Acu-Link.com,2013-05-18 00:59:00,
2013-05-17 21:14:00,66.9,54.3,30.00,SW,225,0.0,-999.0,64,-99.99,,,0.00,Acu-Link.com,2013-05-18 01:14:00,
2013-05-17 21:29:00,65.8,54.9,30.00,SW,225,0.0,-999.0,68,-99.99,,,0.00,Acu-Link.com,2013-05-18 01:29:00,
2013-05-17 21:44:00,65.1,55.1,30.00,West,270,0.0,-999.0,70,-99.99,,,0.00,Acu-Link.com,2013-05-18 01:44:00,
2013-05-17 22:00:00,64.0,55.5,30.01,WNW,292,0.0,-999.0,74,-99.99,,,0.00,Acu-Link.com,2013-05-18 02:00:00,
2013-05-17 22:15:00,63.5,55.8,30.01,East,90,0.0,-999.0,76,-99.99,,,0.00,Acu-Link.com,2013-05-18 02:15:00,
2013-05-17 22:30:00,63.1,55.0,30.00,NW,315,0.0,-999.0,75,-99.99,,,0.00,Acu-Link.com,2013-05-18 02:30:00,
2013-05-17 22:46:00,62.8,55.5,30.02,WSW,247,0.0,-999.0,77,-99.99,,,0.00,Acu-Link.com,2013-05-18 02:46:00,
2013-05-17 23:01:00,62.4,56.1,30.01,WNW,292,0.0,-999.0,80,-99.99,,,0.00,Acu-Link.com,2013-05-18 03:01:00,
2013-05-17 23:17:00,62.4,55.8,30.01,SSE,157,0.0,-999.0,79,-99.99,,,0.00,Acu-Link.com,2013-05-18 03:17:00,
2013-05-17 23:32:00,62.2,56.0,30.01,SW,225,0.0,-999.0,80,-99.99,,,0.00,Acu-Link.com,2013-05-18 03:32:00,
2013-05-17 23:47:00,61.9,57.0,30.01,SE,135,0.0,-999.0,84,-99.99,,,0.00,Acu-Link.com,2013-05-18 03:47:00,